createdAt,value
2023-02-11T00:03:54.450Z,0.0
2023-02-11T00:06:25.114Z,0.0
2023-02-11T00:08:55.746Z,0.0
2023-02-11T00:11:26.413Z,0.0
2023-02-11T00:14:07.036Z,0.0
2023-02-11T00:16:37.906Z,0.0
2023-02-11T00:19:08.570Z,0.0
2023-02-11T00:21:39.204Z,0.0
2023-02-11T00:24:09.906Z,0.0
2023-02-11T00:26:40.540Z,0.0
2023-02-11T00:29:21.158Z,0.0
2023-02-11T00:31:52.223Z,0.0
2023-02-11T00:34:22.921Z,0.0
2023-02-11T00:36:53.562Z,0.0
2023-02-11T00:39:24.183Z,0.0
2023-02-11T00:44:44.809Z,0.0
2023-02-11T00:47:15.545Z,0.0
2023-02-11T00:49:46.154Z,0.0
2023-02-11T00:52:16.761Z,0.0
2023-02-11T00:54:50.321Z,0.0
2023-02-11T00:57:20.967Z,0.0
2023-02-11T00:59:51.568Z,0.0
2023-02-11T01:02:22.231Z,0.0
2023-02-11T01:04:52.872Z,0.0
2023-02-11T01:07:23.532Z,0.0
2023-02-11T01:09:54.167Z,0.0
2023-02-11T01:12:36.350Z,0.0
2023-02-11T01:15:07.084Z,0.0
2023-02-11T01:17:37.683Z,0.0
2023-02-11T01:20:08.383Z,0.0
2023-02-11T01:25:09.022Z,0.0
2023-02-11T01:27:49.647Z,0.0
2023-02-11T01:30:20.272Z,0.0
2023-02-11T01:32:50.892Z,0.0
2023-02-11T01:35:21.511Z,0.0
2023-02-11T01:37:52.141Z,0.0
2023-02-11T01:40:22.788Z,0.0
2023-02-11T01:43:03.416Z,0.0
2023-02-11T01:45:44.026Z,0.0
2023-02-11T01:48:14.644Z,0.0
2023-02-11T01:50:45.312Z,0.0
2023-02-11T01:53:15.937Z,0.0
2023-02-11T01:55:56.577Z,0.0
2023-02-11T01:58:27.175Z,0.0
2023-02-11T02:00:57.832Z,0.0
2023-02-11T02:05:58.854Z,0.0
2023-02-11T02:08:29.514Z,0.0
2023-02-11T02:11:10.141Z,0.0
2023-02-11T02:13:40.773Z,0.0
2023-02-11T02:16:12.017Z,0.0
2023-02-11T02:18:42.657Z,0.0
2023-02-11T02:21:13.321Z,0.0
2023-02-11T02:23:43.917Z,0.0
2023-02-11T02:26:24.568Z,0.0
2023-02-11T02:28:55.188Z,0.0
2023-02-11T02:31:26.123Z,0.0
2023-02-11T02:33:56.780Z,0.0
2023-02-11T02:36:27.392Z,0.0
2023-02-11T02:38:58.008Z,0.0
2023-02-11T02:41:38.679Z,0.0
2023-02-11T02:46:39.455Z,0.0
2023-02-11T02:49:10.157Z,0.0
2023-02-11T02:51:40.827Z,0.0
2023-02-11T02:54:21.531Z,0.0
2023-02-11T02:56:52.174Z,0.0
2023-02-11T02:59:23.156Z,0.0
2023-02-11T03:01:53.801Z,0.0
2023-02-11T03:04:24.533Z,0.0
2023-02-11T03:06:55.175Z,0.0
2023-02-11T03:09:35.844Z,0.0
2023-02-11T03:12:06.488Z,0.0
2023-02-11T03:14:37.123Z,0.0
2023-02-11T03:17:07.799Z,0.0
2023-02-11T03:19:38.443Z,0.0
2023-02-11T03:22:09.134Z,0.0
2023-02-11T03:27:19.730Z,0.0
2023-02-11T03:29:50.349Z,0.0
2023-02-11T03:32:21.184Z,0.0
2023-02-11T03:34:51.812Z,0.0
2023-02-11T03:37:22.431Z,0.0
2023-02-11T03:40:03.082Z,0.0
2023-02-11T03:42:33.745Z,0.0
2023-02-11T03:45:04.377Z,0.0
2023-02-11T03:47:35.014Z,0.0
2023-02-11T03:50:05.670Z,0.0
2023-02-11T03:52:46.312Z,0.0
2023-02-11T03:55:16.913Z,0.0
2023-02-11T03:57:47.525Z,0.0
2023-02-11T04:00:18.233Z,0.0
2023-02-11T04:02:48.907Z,0.0
2023-02-11T04:07:59.583Z,0.0
2023-02-11T04:10:30.227Z,0.0
2023-02-11T04:13:00.829Z,0.0
2023-02-11T04:15:31.448Z,0.0
2023-02-11T04:18:02.106Z,0.0
2023-02-11T04:20:32.730Z,0.0
2023-02-11T04:23:13.331Z,0.0
2023-02-11T04:25:43.937Z,0.0
2023-02-11T04:28:14.646Z,0.0
2023-02-11T04:30:45.297Z,0.0
2023-02-11T04:33:15.933Z,0.0
2023-02-11T04:35:46.549Z,0.0
2023-02-11T04:38:27.161Z,0.0
2023-02-11T04:40:57.818Z,0.0
2023-02-11T04:43:28.434Z,0.0
2023-02-11T04:48:39.088Z,0.0
2023-02-11T04:51:09.734Z,0.0
2023-02-11T04:53:50.392Z,0.0
2023-02-11T04:56:21.037Z,0.0
2023-02-11T04:58:51.690Z,0.0
2023-02-11T05:01:22.492Z,0.0
2023-02-11T05:03:53.296Z,0.0
2023-02-11T05:06:34.005Z,0.0
2023-02-11T05:09:04.770Z,0.0
2023-02-11T05:14:05.394Z,0.0
2023-02-11T05:16:36.210Z,0.0
2023-02-11T05:19:06.884Z,0.0
2023-02-11T05:22:00.417Z,0.0
2023-02-11T05:24:12.319Z,0.0
2023-02-11T05:29:12.919Z,0.0
2023-02-11T05:31:43.617Z,0.0
2023-02-11T05:34:14.252Z,0.0
2023-02-11T05:36:54.923Z,0.0
2023-02-11T05:39:25.529Z,0.0
2023-02-11T05:41:56.203Z,0.0
2023-02-11T05:44:26.833Z,0.0
2023-02-11T05:46:57.851Z,0.0
2023-02-11T05:49:28.481Z,0.0
2023-02-11T05:52:09.146Z,0.0
2023-02-11T05:54:49.800Z,0.0
2023-02-11T05:57:20.471Z,0.0
2023-02-11T05:59:51.117Z,0.0
2023-02-11T06:02:21.846Z,0.0
2023-02-11T06:05:02.476Z,0.0
2023-02-11T06:10:03.162Z,0.0
2023-02-11T06:12:33.778Z,0.0
2023-02-11T06:15:04.410Z,0.0
2023-02-11T06:17:36.239Z,0.0
2023-02-11T06:20:16.898Z,0.0
2023-02-11T06:25:22.198Z,0.0
2023-02-11T06:27:42.837Z,0.5
2023-02-11T06:30:13.471Z,0.0
2023-02-11T06:33:03.829Z,0.0
2023-02-11T06:35:24.516Z,0.2
2023-02-11T06:37:55.124Z,0.8
2023-02-11T06:40:25.835Z,0.5
2023-02-11T06:42:56.549Z,0.0
2023-02-11T06:45:27.200Z,0.0
2023-02-11T06:50:37.852Z,0.2
2023-02-11T06:53:08.469Z,0.2
2023-02-11T06:55:39.131Z,0.5
2023-02-11T06:58:09.757Z,0.0
2023-02-11T07:00:40.500Z,0.0
2023-02-11T07:03:21.415Z,0.0
2023-02-11T07:05:52.435Z,0.5
2023-02-11T07:08:23.187Z,0.0
2023-02-11T07:10:53.810Z,0.0
2023-02-11T07:13:24.433Z,0.0
2023-02-11T07:15:55.166Z,0.0
2023-02-11T07:18:35.773Z,0.2
2023-02-11T07:21:06.393Z,1.1
2023-02-11T07:23:37.030Z,0.0
2023-02-11T07:26:07.646Z,0.0
2023-02-11T07:31:18.582Z,0.2
2023-02-11T07:33:59.261Z,0.0
2023-02-11T07:36:29.932Z,0.0
2023-02-11T07:39:00.559Z,0.0
2023-02-11T07:41:31.217Z,1.3
2023-02-11T07:44:01.856Z,0.5
2023-02-11T07:46:32.736Z,2.5
2023-02-11T07:49:13.429Z,2.7
2023-02-11T07:51:44.164Z,1.9
2023-02-11T07:54:14.799Z,1.1
2023-02-11T07:56:45.434Z,0.0
2023-02-11T07:59:16.077Z,0.0
2023-02-11T08:04:26.725Z,0.0
2023-02-11T08:06:58.930Z,0.0
2023-02-11T08:11:59.743Z,0.0
2023-02-11T08:14:30.354Z,0.0
2023-02-11T08:19:42.647Z,0.2
2023-02-11T08:22:13.313Z,0.2
2023-02-11T08:24:43.907Z,1.1
2023-02-11T08:27:14.515Z,0.5
2023-02-11T08:29:45.131Z,2.2
2023-02-11T08:32:25.959Z,0.8
2023-02-11T08:34:56.588Z,1.1
2023-02-11T08:37:27.218Z,0.8
2023-02-11T08:39:57.811Z,0.5
2023-02-11T08:42:28.429Z,0.5
2023-02-11T08:44:59.057Z,0.0
2023-02-11T08:47:39.722Z,0.2
2023-02-11T08:52:40.400Z,0.8
2023-02-11T08:55:11.040Z,0.8
2023-02-11T08:57:41.680Z,0.5
2023-02-11T09:00:22.339Z,0.2
2023-02-11T09:02:53.073Z,0.0
2023-02-11T09:05:23.727Z,1.1
2023-02-11T09:07:54.335Z,2.5
2023-02-11T09:10:24.965Z,1.6
2023-02-11T09:12:55.606Z,3.8
2023-02-11T09:15:36.239Z,3.6
2023-02-11T09:18:06.932Z,4.4
2023-02-11T09:20:37.578Z,2.7
2023-02-11T09:23:08.232Z,2.2
2023-02-11T09:25:38.855Z,2.7
2023-02-11T09:28:09.554Z,4.4
2023-02-11T09:33:20.288Z,3.3
2023-02-11T09:35:50.914Z,4.1
2023-02-11T09:38:21.559Z,2.7
2023-02-11T09:40:52.451Z,1.9
2023-02-11T09:43:24.732Z,2.2
2023-02-11T09:46:05.560Z,2.2
2023-02-11T09:48:36.287Z,1.9
2023-02-11T09:51:06.907Z,10.2
2023-02-11T09:53:37.501Z,3.8
2023-02-11T09:56:08.148Z,2.2
2023-02-11T09:58:38.774Z,2.7
2023-02-11T10:01:20.988Z,4.1
2023-02-11T10:03:51.700Z,1.9
2023-02-11T10:06:22.322Z,3.8
2023-02-11T10:08:52.989Z,3.6
2023-02-11T10:13:53.630Z,3.6
2023-02-11T10:16:34.401Z,3.3
2023-02-11T10:19:05.035Z,2.5
2023-02-11T10:21:35.665Z,2.7
2023-02-11T10:24:06.317Z,3.6
2023-02-11T10:26:37.032Z,1.9
2023-02-11T10:29:17.804Z,2.7
2023-02-11T10:31:48.762Z,2.7
2023-02-11T10:34:19.436Z,3.3
2023-02-11T10:36:50.076Z,3.6
2023-02-11T10:39:20.719Z,2.7
2023-02-11T10:44:31.359Z,1.9
2023-02-11T10:47:02.130Z,1.6
2023-02-11T10:49:32.751Z,2.5
2023-02-11T10:54:34.332Z,3.6
2023-02-11T10:57:04.966Z,2.7
2023-02-11T10:59:45.601Z,1.1
2023-02-11T11:02:16.471Z,1.3
2023-02-11T11:04:47.368Z,0.8
2023-02-11T11:07:18.037Z,1.3
2023-02-11T11:09:48.686Z,1.9
2023-02-11T11:12:19.297Z,1.1
2023-02-11T11:14:59.948Z,0.0
2023-02-11T11:17:30.619Z,1.1
2023-02-11T11:20:01.230Z,1.3
2023-02-11T11:22:31.908Z,2.2
2023-02-11T11:25:02.544Z,3.8
2023-02-11T11:27:33.176Z,1.6
2023-02-11T11:30:13.845Z,1.3
2023-02-11T11:35:14.537Z,1.1
2023-02-11T11:37:45.457Z,3.0
2023-02-11T11:40:16.146Z,3.0
2023-02-11T11:42:56.770Z,0.8
2023-02-11T11:45:27.405Z,1.9
2023-02-11T11:47:58.023Z,1.9
2023-02-11T11:50:41.487Z,1.9
2023-02-11T11:53:02.104Z,1.9
2023-02-11T11:55:32.728Z,2.2
2023-02-11T11:58:13.351Z,3.0
2023-02-11T12:00:43.971Z,1.3
2023-02-11T12:03:14.710Z,2.7
2023-02-11T12:05:45.386Z,4.1
2023-02-11T12:08:15.976Z,1.9
2023-02-11T12:10:46.592Z,3.3
2023-02-11T12:15:57.219Z,1.3
2023-02-11T12:18:27.806Z,1.3
2023-02-11T12:20:58.431Z,3.6
2023-02-11T12:23:29.060Z,1.9
2023-02-11T12:25:59.685Z,1.6
2023-02-11T12:28:50.568Z,2.2
2023-02-11T12:31:13.140Z,1.9
2023-02-11T12:33:43.886Z,3.8
2023-02-11T12:36:14.531Z,2.5
2023-02-11T12:38:45.157Z,1.9
2023-02-11T12:41:15.783Z,1.6
2023-02-11T12:43:56.435Z,4.1
2023-02-11T12:46:27.253Z,4.7
2023-02-11T12:48:57.851Z,3.8
2023-02-11T12:51:28.452Z,4.7
2023-02-11T12:56:39.073Z,5.8
2023-02-11T12:59:21.133Z,3.0
2023-02-11T13:01:42.208Z,15.2
2023-02-11T13:04:12.874Z,4.1
2023-02-11T13:06:43.508Z,2.7
2023-02-11T13:09:14.112Z,3.0
2023-02-11T13:11:54.746Z,2.5
2023-02-11T13:14:25.363Z,1.6
2023-02-11T13:16:56.255Z,2.7
2023-02-11T13:19:26.927Z,1.9
2023-02-11T13:21:57.566Z,2.7
2023-02-11T13:24:28.170Z,2.5
2023-02-11T13:29:38.820Z,1.9
2023-02-11T13:32:19.938Z,1.3
2023-02-11T13:37:20.602Z,3.0
2023-02-11T13:39:51.207Z,1.3
2023-02-11T13:42:31.844Z,0.8
2023-02-11T13:45:02.469Z,0.8
2023-02-11T13:47:33.122Z,1.6
2023-02-11T13:50:03.797Z,0.0
2023-02-11T13:52:34.435Z,7.7
2023-02-11T13:55:15.098Z,0.2
2023-02-11T13:57:45.733Z,1.3
2023-02-11T14:00:16.423Z,0.2
2023-02-11T14:02:47.395Z,1.1
2023-02-11T14:05:18.101Z,0.8
2023-02-11T14:07:48.711Z,0.0
2023-02-11T14:10:29.376Z,0.0
2023-02-11T14:13:00.004Z,0.0
2023-02-11T14:18:00.689Z,0.0
2023-02-11T14:20:31.320Z,0.0
2023-02-11T14:23:01.932Z,0.5
2023-02-11T14:25:42.538Z,1.1
2023-02-11T14:28:13.212Z,0.2
2023-02-11T14:30:44.080Z,0.5
2023-02-11T14:33:14.842Z,2.2
2023-02-11T14:35:45.473Z,2.5
2023-02-11T14:38:16.121Z,2.5
2023-02-11T14:40:56.761Z,3.6
2023-02-11T14:43:29.490Z,3.6
2023-02-11T14:46:00.439Z,3.6
2023-02-11T14:48:31.075Z,2.5
2023-02-11T14:51:02.144Z,1.1
2023-02-11T14:53:42.790Z,2.2
2023-02-11T14:58:43.417Z,3.0
2023-02-11T15:01:14.427Z,2.5
2023-02-11T15:03:45.105Z,3.0
2023-02-11T15:06:15.723Z,2.7
2023-02-11T15:08:56.373Z,2.7
2023-02-11T15:11:27.015Z,1.3
2023-02-11T15:13:57.826Z,2.2
2023-02-11T15:16:28.806Z,3.0
2023-02-11T15:18:59.429Z,3.3
2023-02-11T15:21:30.084Z,1.6
2023-02-11T15:24:10.706Z,3.0
2023-02-11T15:26:41.338Z,2.2
2023-02-11T15:29:11.947Z,4.4
2023-02-11T15:31:45.556Z,3.0
2023-02-11T15:34:16.187Z,2.5
2023-02-11T15:39:26.826Z,0.5
2023-02-11T15:41:57.463Z,1.3
2023-02-11T15:44:28.063Z,1.1
2023-02-11T15:46:58.831Z,1.1
2023-02-11T15:49:29.519Z,1.9
2023-02-11T15:52:10.238Z,2.5
2023-02-11T15:54:41.046Z,1.9
2023-02-11T15:57:11.680Z,2.2
2023-02-11T15:59:42.300Z,2.5
2023-02-11T16:02:13.272Z,2.5
2023-02-11T16:04:44.107Z,0.5
2023-02-11T16:07:24.716Z,2.7
2023-02-11T16:09:55.361Z,1.6
2023-02-11T16:12:25.964Z,0.8
2023-02-11T16:14:56.581Z,1.3
2023-02-11T16:19:57.232Z,0.2
2023-02-11T16:22:37.877Z,0.0
2023-02-11T16:25:08.513Z,1.1
2023-02-11T16:27:39.121Z,2.2
2023-02-11T16:30:09.747Z,3.3
2023-02-11T16:32:40.354Z,1.6
2023-02-11T16:35:11.168Z,3.3
2023-02-11T16:37:51.789Z,3.0
2023-02-11T16:40:22.467Z,0.5
2023-02-11T16:42:53.085Z,1.9
2023-02-11T16:45:23.921Z,2.7
2023-02-11T16:47:54.531Z,2.2
2023-02-11T16:50:25.211Z,1.6
2023-02-11T16:53:05.919Z,1.3
2023-02-11T16:55:36.569Z,1.3
2023-02-11T17:00:37.338Z,0.5
2023-02-11T17:03:07.972Z,1.1
2023-02-11T17:06:04.875Z,0.5
2023-02-11T17:08:15.467Z,0.0
2023-02-11T17:10:46.093Z,0.0
2023-02-11T17:13:16.730Z,0.8
2023-02-11T17:15:47.385Z,0.8
2023-02-11T17:18:18.011Z,0.8
2023-02-11T17:21:08.637Z,0.0
2023-02-11T17:23:39.242Z,0.0
2023-02-11T17:26:10.155Z,0.2
2023-02-11T17:28:40.867Z,0.5
2023-02-11T17:31:11.726Z,0.5
2023-02-11T17:33:45.401Z,1.3
2023-02-11T17:36:16.030Z,1.1
2023-02-11T17:41:16.666Z,0.5
2023-02-11T17:43:47.287Z,0.5
2023-02-11T17:46:18.384Z,0.8
2023-02-11T17:48:49.035Z,1.1
2023-02-11T17:51:29.681Z,0.0
2023-02-11T17:54:00.314Z,0.0
2023-02-11T17:56:30.941Z,0.2
2023-02-11T17:59:01.529Z,0.2
2023-02-11T18:01:32.375Z,0.0
2023-02-11T18:04:13.087Z,0.0
2023-02-11T18:06:43.766Z,0.0
2023-02-11T18:09:17.921Z,0.0
2023-02-11T18:11:48.555Z,0.0
2023-02-11T18:14:19.180Z,0.0
2023-02-11T18:16:50.432Z,0.0
2023-02-11T18:22:01.290Z,0.0
2023-02-11T18:24:31.953Z,0.0
2023-02-11T18:27:02.577Z,0.0
2023-02-11T18:29:33.272Z,0.0
2023-02-11T18:32:04.089Z,0.0
2023-02-11T18:34:44.781Z,0.0
2023-02-11T18:37:15.386Z,0.0
2023-02-11T18:39:46.032Z,0.0
2023-02-11T18:42:16.672Z,0.0
2023-02-11T18:44:47.280Z,0.0
2023-02-11T18:47:17.961Z,0.0
2023-02-11T18:49:58.593Z,0.0
2023-02-11T18:52:29.214Z,0.0
2023-02-11T18:55:00.164Z,0.0
2023-02-11T18:57:30.848Z,0.0
2023-02-11T19:02:41.495Z,0.0
2023-02-11T19:05:12.185Z,0.0
2023-02-11T19:07:42.791Z,0.0
2023-02-11T19:10:13.638Z,0.0
2023-02-11T19:12:44.269Z,0.0
2023-02-11T19:15:14.877Z,0.0
2023-02-11T19:17:55.481Z,0.0
2023-02-11T19:20:26.140Z,0.0
2023-02-11T19:22:56.764Z,0.0
2023-02-11T19:25:27.376Z,0.0
2023-02-11T19:27:58.081Z,0.0
2023-02-11T19:30:38.740Z,0.0
2023-02-11T19:33:10.178Z,0.0
2023-02-11T19:35:40.937Z,0.0
2023-02-11T19:38:11.530Z,0.0
2023-02-11T19:43:12.161Z,0.0
2023-02-11T19:45:53.094Z,0.0
2023-02-11T19:48:23.833Z,0.0
2023-02-11T19:50:54.452Z,0.0
2023-02-11T19:53:25.051Z,0.0
2023-02-11T19:55:55.650Z,0.0
2023-02-11T19:58:26.288Z,0.0
2023-02-11T20:01:06.984Z,0.0
2023-02-11T20:03:37.693Z,0.0
2023-02-11T20:06:08.366Z,0.0
2023-02-11T20:08:38.985Z,0.0
2023-02-11T20:11:09.586Z,0.0
2023-02-11T20:13:50.191Z,0.0
2023-02-11T20:16:21.111Z,0.0
2023-02-11T20:18:51.733Z,0.0
2023-02-11T20:24:02.357Z,0.0
2023-02-11T20:26:32.977Z,0.0
2023-02-11T20:29:13.614Z,0.0
2023-02-11T20:31:44.858Z,0.0
2023-02-11T20:34:05.618Z,0.0
2023-02-11T20:36:36.241Z,0.0
2023-02-11T20:39:06.882Z,0.0
2023-02-11T20:41:47.574Z,0.0
2023-02-11T20:44:18.229Z,0.0
2023-02-11T20:46:59.338Z,0.0
2023-02-11T20:49:19.933Z,0.0
2023-02-11T20:51:50.543Z,0.0
2023-02-11T20:54:21.194Z,0.0
2023-02-11T20:57:01.833Z,0.0
2023-02-11T20:59:42.529Z,0.0
2023-02-11T21:04:43.174Z,0.0
2023-02-11T21:07:13.785Z,0.0
2023-02-11T21:09:44.403Z,0.0
2023-02-11T21:12:25.006Z,0.0
2023-02-11T21:14:55.601Z,0.0
2023-02-11T21:17:26.356Z,0.0
2023-02-11T21:19:56.985Z,0.0
2023-02-11T21:22:27.597Z,0.0
2023-02-11T21:25:08.248Z,0.0
2023-02-11T21:27:38.848Z,0.0
2023-02-11T21:30:14.569Z,0.0
2023-02-11T21:32:35.228Z,0.0
2023-02-11T21:35:05.856Z,0.0
2023-02-11T21:37:36.515Z,0.0
2023-02-11T21:40:17.211Z,0.0
2023-02-11T21:45:17.857Z,0.0
2023-02-11T21:47:48.496Z,0.0
2023-02-11T21:50:19.132Z,0.0
2023-02-11T21:52:49.730Z,0.0
2023-02-11T21:55:30.349Z,0.0
2023-02-11T21:58:00.968Z,0.0
2023-02-11T22:00:31.614Z,0.0
2023-02-11T22:03:02.288Z,0.0
2023-02-11T22:05:32.923Z,0.0
2023-02-11T22:08:13.515Z,0.0
2023-02-11T22:10:44.138Z,0.0
2023-02-11T22:13:14.788Z,0.0
2023-02-11T22:15:45.419Z,0.0
2023-02-11T22:18:16.020Z,0.0
2023-02-11T22:20:46.743Z,0.0
2023-02-11T22:25:57.411Z,0.0
2023-02-11T22:28:38.212Z,0.0
2023-02-11T22:30:58.994Z,0.0
2023-02-11T22:33:29.624Z,0.0
2023-02-11T22:36:10.307Z,0.0
2023-02-11T22:38:50.933Z,0.0
2023-02-11T22:41:21.558Z,0.0
2023-02-11T22:43:52.192Z,0.0
2023-02-11T22:46:23.061Z,0.0
2023-02-11T22:48:53.695Z,0.0
2023-02-11T22:51:34.364Z,0.0
2023-02-11T22:54:05.096Z,0.0
2023-02-11T22:56:36.430Z,0.0
2023-02-11T22:58:57.119Z,0.0
2023-02-11T23:01:27.884Z,0.0
2023-02-11T23:06:48.592Z,0.0
2023-02-11T23:09:19.220Z,0.0
2023-02-11T23:11:49.877Z,0.0
2023-02-11T23:14:20.536Z,0.0
2023-02-11T23:16:51.570Z,0.0
2023-02-11T23:19:32.261Z,0.0
2023-02-11T23:22:02.899Z,0.0
2023-02-11T23:24:33.608Z,0.0
2023-02-11T23:27:04.299Z,0.0
2023-02-11T23:29:34.971Z,0.0
2023-02-11T23:32:08.984Z,0.2
2023-02-11T23:34:39.644Z,0.0
2023-02-11T23:37:10.306Z,0.0
2023-02-11T23:39:40.952Z,0.0
2023-02-11T23:42:11.604Z,0.0
2023-02-11T23:47:12.257Z,0.0
2023-02-11T23:49:52.861Z,0.0
2023-02-11T23:52:23.487Z,0.0
2023-02-11T23:54:54.107Z,0.0
2023-02-11T23:57:24.728Z,0.0
2023-02-11T23:59:55.324Z,0.0
